Time;durP1;ratioP1;P1;durP2;ratioP2;P2;SDS_P1;SDS_P2;PMS_P1;PMS_P2;Temp;Humidity;BMP_temperature;BMP_pressure;BME280_temperature;BME280_humidity;BME280_pressure;Samples;Min_cycle;Max_cycle;Signal;HPM_P1;HPM_P2
2021/05/08 00:00:32;;;;;;;22.52;11.88;;;;;;;;;;5009181;28;20026;-56
2021/05/08 00:02:58;;;;;;;20.23;10.88;;;;;;;;;;5011486;28;20034;-54
2021/05/08 00:05:24;;;;;;;30.70;12.02;;;;;;;;;;5015118;28;20538;-58
2021/05/08 00:07:50;;;;;;;20.85;11.05;;;;;;;;;;5014740;28;20088;-62
2021/05/08 00:10:17;;;;;;;20.55;10.75;;;;;;;;;;5014111;28;20437;-58
2021/05/08 00:12:44;;;;;;;21.52;10.25;;;;;;;;;;5015280;28;20092;-57
2021/05/08 00:15:11;;;;;;;21.63;10.65;;;;;;;;;;5013687;28;20075;-57
2021/05/08 00:17:38;;;;;;;21.55;11.32;;;;;;;;;;5014507;28;20036;-52
2021/05/08 00:20:10;;;;;;;23.02;12.02;;;;;;;;;;5014018;28;20026;-61
2021/05/08 00:22:37;;;;;;;20.70;10.52;;;;;;;;;;5014513;28;20030;-53
2021/05/08 00:25:04;;;;;;;20.10;9.95;;;;;;;;;;5013265;28;20021;-56
2021/05/08 00:27:30;;;;;;;24.38;11.27;;;;;;;;;;5014814;28;20018;-54
2021/05/08 00:29:56;;;;;;;22.40;11.57;;;;;;;;;;5014367;28;20030;-57
2021/05/08 00:32:22;;;;;;;21.60;11.07;;;;;;;;;;5015044;28;20037;-54
2021/05/08 00:34:48;;;;;;;22.92;12.43;;;;;;;;;;5015125;28;20394;-57
2021/05/08 00:37:14;;;;;;;21.30;11.35;;;;;;;;;;5013619;28;20022;-57
2021/05/08 00:39:40;;;;;;;20.38;11.48;;;;;;;;;;5013905;28;20030;-55
2021/05/08 00:42:06;;;;;;;23.13;12.57;;;;;;;;;;5014881;28;20486;-53
2021/05/08 00:44:32;;;;;;;21.40;11.35;;;;;;;;;;5013497;28;20141;-56
2021/05/08 00:46:58;;;;;;;21.67;11.13;;;;;;;;;;5015023;28;20426;-56
2021/05/08 00:49:27;;;;;;;21.52;11.73;;;;;;;;;;5013169;28;20033;-58
2021/05/08 00:51:53;;;;;;;20.60;10.27;;;;;;;;;;5014621;28;20486;-59
2021/05/08 00:54:20;;;;;;;22.02;11.85;;;;;;;;;;5013209;28;20044;-56
2021/05/08 00:56:46;;;;;;;21.77;12.23;;;;;;;;;;5014487;28;20435;-52
2021/05/08 00:59:12;;;;;;;22.45;11.50;;;;;;;;;;5012451;28;20030;-57
2021/05/08 01:01:40;;;;;;;22.88;11.90;;;;;;;;;;5014295;28;20025;-59
2021/05/08 01:04:06;;;;;;;21.80;10.18;;;;;;;;;;5014218;28;20025;-55
2021/05/08 01:06:33;;;;;;;22.35;11.73;;;;;;;;;;5014354;28;20026;-53
2021/05/08 01:08:59;;;;;;;24.80;11.27;;;;;;;;;;5065940;22;20143;-63
2021/05/08 01:11:25;;;;;;;21.63;10.93;;;;;;;;;;5072648;28;20031;-61
2021/05/08 01:13:51;;;;;;;21.48;11.10;;;;;;;;;;5073379;28;20024;-62
2021/05/08 01:16:18;;;;;;;22.52;11.32;;;;;;;;;;5073738;28;20031;-63
2021/05/08 01:18:44;;;;;;;22.13;11.07;;;;;;;;;;5071729;28;20028;-62
2021/05/08 01:21:14;;;;;;;23.65;10.98;;;;;;;;;;5074366;28;20020;-63
2021/05/08 01:23:40;;;;;;;22.52;11.75;;;;;;;;;;5074027;28;20028;-62
2021/05/08 01:26:06;;;;;;;21.65;10.77;;;;;;;;;;5074255;28;20025;-63
2021/05/08 01:28:32;;;;;;;22.20;10.73;;;;;;;;;;5073267;28;20036;-62
2021/05/08 01:30:58;;;;;;;21.73;10.23;;;;;;;;;;5072369;28;20032;-63
2021/05/08 01:33:24;;;;;;;22.45;11.40;;;;;;;;;;5072819;28;20028;-62
2021/05/08 01:35:50;;;;;;;21.33;10.55;;;;;;;;;;5073159;28;20021;-63
2021/05/08 01:38:16;;;;;;;23.65;11.90;;;;;;;;;;5073640;28;20036;-63
2021/05/08 01:40:42;;;;;;;23.27;11.38;;;;;;;;;;5073245;28;20052;-63
2021/05/08 01:43:08;;;;;;;22.73;10.55;;;;;;;;;;5072788;28;20028;-62
2021/05/08 01:45:34;;;;;;;21.63;10.57;;;;;;;;;;5073987;28;20146;-64
2021/05/08 01:48:01;;;;;;;22.75;11.63;;;;;;;;;;5073776;28;20040;-63
2021/05/08 01:50:28;;;;;;;22.95;11.27;;;;;;;;;;5072827;28;20125;-62
2021/05/08 01:52:54;;;;;;;22.85;11.23;;;;;;;;;;5072305;28;20024;-63
2021/05/08 01:55:21;;;;;;;21.77;11.60;;;;;;;;;;5073507;28;20035;-65
2021/05/08 01:57:48;;;;;;;21.45;9.93;;;;;;;;;;5072255;28;20034;-62
2021/05/08 02:00:18;;;;;;;22.38;11.02;;;;;;;;;;5071280;28;20025;-63
2021/05/08 02:02:44;;;;;;;22.00;11.60;;;;;;;;;;5071922;28;20012;-63
2021/05/08 02:05:10;;;;;;;22.77;11.18;;;;;;;;;;5073176;28;20054;-63
2021/05/08 02:07:36;;;;;;;22.00;11.30;;;;;;;;;;5071718;28;20020;-62
2021/05/08 02:10:06;;;;;;;22.13;10.57;;;;;;;;;;5071165;28;20025;-65
2021/05/08 02:12:33;;;;;;;23.02;11.27;;;;;;;;;;5071644;28;20031;-64
2021/05/08 02:14:59;;;;;;;25.40;11.18;;;;;;;;;;5073027;28;20024;-63
2021/05/08 02:17:25;;;;;;;22.90;11.85;;;;;;;;;;5071577;28;20032;-64
2021/05/08 02:19:51;;;;;;;23.45;11.32;;;;;;;;;;5071958;28;20032;-64
2021/05/08 02:22:18;;;;;;;24.73;11.85;;;;;;;;;;5071445;28;20028;-62
2021/05/08 02:24:44;;;;;;;23.45;11.88;;;;;;;;;;5072974;28;20031;-62
2021/05/08 02:27:10;;;;;;;24.23;11.43;;;;;;;;;;5072080;28;20429;-63
2021/05/08 02:29:36;;;;;;;23.40;11.93;;;;;;;;;;5071866;28;20043;-65
2021/05/08 02:32:02;;;;;;;22.92;11.77;;;;;;;;;;5071503;28;20032;-62
2021/05/08 02:34:28;;;;;;;24.98;11.80;;;;;;;;;;5071202;28;20476;-63
2021/05/08 02:36:54;;;;;;;24.38;11.63;;;;;;;;;;5072490;28;20052;-62
2021/05/08 02:39:20;;;;;;;24.70;11.70;;;;;;;;;;5070255;28;20038;-63
2021/05/08 02:41:46;;;;;;;23.33;11.27;;;;;;;;;;5070980;28;20479;-64
2021/05/08 02:44:12;;;;;;;23.52;11.65;;;;;;;;;;5071148;28;20046;-64
2021/05/08 02:46:38;;;;;;;22.13;11.05;;;;;;;;;;5071318;28;20028;-63
2021/05/08 02:49:04;;;;;;;27.15;11.73;;;;;;;;;;5070482;28;20064;-64
2021/05/08 02:51:30;;;;;;;23.02;12.85;;;;;;;;;;5070972;28;20076;-63
2021/05/08 02:53:56;;;;;;;25.80;12.23;;;;;;;;;;5071176;28;20385;-64
2021/05/08 02:56:22;;;;;;;23.52;11.70;;;;;;;;;;5070950;28;20032;-63
2021/05/08 02:58:48;;;;;;;26.13;13.23;;;;;;;;;;5070177;28;20195;-62
2021/05/08 03:01:14;;;;;;;23.90;11.68;;;;;;;;;;5072149;28;20032;-63
2021/05/08 03:03:40;;;;;;;25.05;12.30;;;;;;;;;;5070936;28;20054;-62
2021/05/08 03:06:06;;;;;;;25.02;12.38;;;16.40;58.00;;;;;;5072067;28;20036;-62
2021/05/08 03:08:31;;;;;;;23.40;13.18;;;3.10;99.90;;;;;;5070539;28;20111;-61
2021/05/08 03:10:57;;;;;;;24.88;13.25;;;2.80;99.90;;;;;;5070333;28;20472;-63
2021/05/08 03:13:22;;;;;;;25.15;11.27;;;2.70;99.90;;;;;;5070955;28;20119;-61
2021/05/08 03:15:48;;;;;;;23.20;12.40;;;2.70;99.90;;;;;;5070967;28;20032;-61
2021/05/08 03:18:13;;;;;;;23.92;12.40;;;2.70;99.90;;;;;;5070973;28;20104;-60
2021/05/08 03:20:39;;;;;;;24.77;13.25;;;2.70;99.90;;;;;;5070844;28;20025;-61
2021/05/08 03:23:05;;;;;;;25.35;12.45;;;2.60;99.90;;;;;;5071901;28;20063;-64
2021/05/08 03:25:30;;;;;;;25.73;11.93;;;2.60;99.90;;;;;;5070726;28;20013;-64
2021/05/08 03:27:56;;;;;;;27.52;12.88;;;2.60;99.90;;;;;;5071850;28;20066;-61
2021/05/08 03:30:23;;;;;;;26.08;13.55;;;2.60;99.90;;;;;;5070112;28;20032;-64
2021/05/08 03:32:48;;;;;;;24.88;13.70;;;2.60;99.90;;;;;;5070631;28;20025;-62
2021/05/08 03:35:14;;;;;;;29.27;14.73;;;2.60;99.90;;;;;;5071837;28;20050;-62
2021/05/08 03:37:40;;;;;;;25.80;14.43;;;2.60;99.90;;;;;;5073481;28;20020;-62
2021/05/08 03:40:06;;;;;;;25.52;13.30;;;2.60;99.90;;;;;;5073715;28;20028;-62
2021/05/08 03:42:32;;;;;;;27.13;13.70;;;2.60;99.90;;;;;;5075780;28;20088;-61
2021/05/08 03:44:57;;;;;;;28.75;13.52;;;2.60;99.90;;;;;;5074536;28;20052;-62
2021/05/08 03:47:23;;;;;;;25.65;13.63;;;2.50;99.90;;;;;;5074695;28;20032;-64
2021/05/08 03:49:48;;;;;;;27.52;12.93;;;2.50;99.90;;;;;;5074181;28;20037;-63
2021/05/08 03:52:14;;;;;;;26.13;12.93;;;2.50;99.90;;;;;;5074770;28;20028;-62
2021/05/08 03:54:40;;;;;;;25.42;13.45;;;2.50;99.90;;;;;;5074838;28;20384;-61
2021/05/08 03:57:05;;;;;;;25.45;13.45;;;2.40;99.90;;;;;;5075704;28;20025;-61
2021/05/08 03:59:32;;;;;;;30.08;15.77;;;2.40;99.90;;;;;;5075350;28;20528;-62
2021/05/08 04:01:57;;;;;;;23.80;13.20;;;2.40;99.90;;;;;;5075623;28;20020;-62
2021/05/08 04:04:23;;;;;;;26.15;14.23;;;2.40;99.90;;;;;;5075751;28;20480;-64
2021/05/08 04:06:49;;;;;;;26.60;13.35;;;2.40;99.90;;;;;;5075537;28;20492;-63
2021/05/08 04:09:14;;;;;;;25.67;12.88;;;2.40;99.90;;;;;;5074554;28;20487;-62
2021/05/08 04:11:40;;;;;;;26.00;12.18;;;2.40;99.90;;;;;;5074085;28;20115;-63
2021/05/08 04:14:06;;;;;;;27.77;13.73;;;2.50;99.90;;;;;;5074318;28;20029;-62
2021/05/08 04:16:32;;;;;;;27.02;13.02;;;2.50;99.90;;;;;;5073913;28;20115;-62
2021/05/08 04:19:02;;;;;;;25.52;13.68;;;2.60;99.90;;;;;;5074547;28;20977;-63
2021/05/08 04:21:28;;;;;;;27.77;13.20;;;2.60;99.90;;;;;;5074467;28;20021;-59
2021/05/08 04:23:54;;;;;;;29.27;14.63;;;2.70;99.90;;;;;;5074285;28;20021;-63
2021/05/08 04:26:19;;;;;;;24.98;13.52;;;2.90;99.90;;;;;;5073871;28;20056;-63
2021/05/08 04:28:45;;;;;;;24.83;12.40;;;3.00;99.90;;;;;;5074564;28;20033;-62
2021/05/08 04:31:11;;;;;;;25.85;13.23;;;3.20;99.90;;;;;;5073845;28;20029;-62
2021/05/08 04:33:37;;;;;;;27.50;12.88;;;;;;;;;;5073890;28;20024;-64
2021/05/08 04:36:03;;;;;;;25.58;13.00;;;;;;;;;;5073902;28;20100;-63
2021/05/08 04:38:29;;;;;;;27.00;13.60;;;;;;;;;;5074635;28;20031;-64
2021/05/08 04:40:55;;;;;;;24.15;12.40;;;;;;;;;;5072243;28;20028;-62
2021/05/08 04:43:21;;;;;;;24.00;12.82;;;;;;;;;;5073326;28;20021;-62
2021/05/08 04:45:47;;;;;;;24.38;12.85;;;;;;;;;;5074715;28;20024;-58
2021/05/08 04:48:21;;;;;;;24.48;12.57;;;;;;;;;;5074753;28;20029;-62
2021/05/08 04:50:47;;;;;;;24.50;12.45;;;;;;;;;;5073287;28;20024;-62
2021/05/08 04:53:13;;;;;;;24.50;11.80;;;;;;;;;;5074556;28;20024;-63
2021/05/08 04:55:39;;;;;;;23.98;13.55;;;;;;;;;;5074601;28;20021;-62
2021/05/08 04:58:08;;;;;;;26.63;12.63;;;;;;;;;;5074405;28;20031;-63
2021/05/08 05:00:34;;;;;;;25.38;13.60;;;;;;;;;;5073922;28;20028;-63
2021/05/08 05:03:00;;;;;;;26.25;13.13;;;;;;;;;;5073301;28;20025;-63
2021/05/08 05:05:26;;;;;;;22.63;12.48;;;;;;;;;;5074176;28;20495;-63
2021/05/08 05:07:52;;;;;;;23.50;12.57;;;;;;;;;;5074059;28;20028;-60
2021/05/08 05:10:18;;;;;;;25.08;13.32;;;;;;;;;;5072185;28;20028;-59
2021/05/08 05:12:46;;;;;;;23.23;12.48;;;;;;;;;;5072711;28;20396;-62
2021/05/08 05:15:12;;;;;;;25.70;12.50;;;;;;;;;;5073853;28;20476;-63
2021/05/08 05:17:38;;;;;;;25.35;12.88;;;;;;;;;;5073671;28;20020;-62
2021/05/08 05:20:05;;;;;;;24.45;12.63;;;;;;;;;;5073128;28;20384;-62
2021/05/08 05:22:31;;;;;;;24.92;13.32;;;;;;;;;;5073931;28;20024;-62
2021/05/08 05:24:58;;;;;;;24.35;12.65;;;;;;;;;;5072514;28;20021;-62
2021/05/08 05:27:23;;;;;;;25.48;14.00;;;;;;;;;;5072411;28;20028;-63
2021/05/08 05:29:50;;;;;;;26.35;14.20;;;;;;;;;;5071951;28;20040;-61
2021/05/08 05:32:16;;;;;;;24.67;14.18;;;;;;;;;;5072539;28;20056;-60
2021/05/08 05:34:41;;;;;;;24.27;13.55;;;;;;;;;;5073903;28;20067;-63
2021/05/08 05:37:07;;;;;;;24.67;14.00;;;;;;;;;;5072899;28;20025;-63
2021/05/08 05:39:34;;;;;;;28.40;14.90;;;;;;;;;;5072888;28;20082;-59
2021/05/08 05:42:00;;;;;;;27.80;14.60;;;;;;;;;;5072514;28;20070;-60
2021/05/08 05:44:26;;;;;;;27.42;14.15;;;;;;;;;;5072410;28;20028;-62
2021/05/08 05:46:52;;;;;;;24.88;14.00;;;;;;;;;;5071216;28;20499;-61
2021/05/08 05:49:18;;;;;;;27.15;15.23;;;;;;;;;;5078193;28;20029;-61
2021/05/08 05:51:44;;;;;;;26.77;14.15;;;;;;;;;;5089297;28;20074;-57
2021/05/08 05:54:10;;;;;;;28.67;14.73;;;;;;;;;;5092855;28;20072;-62
2021/05/08 05:56:36;;;;;;;25.17;13.95;;;;;;;;;;5092101;28;20110;-63
2021/05/08 05:59:02;;;;;;;26.45;13.18;;;;;;;;;;5092332;28;20434;-64
2021/05/08 06:01:28;;;;;;;26.50;13.93;;;;;;;;;;5092313;28;20544;-63
2021/05/08 06:03:54;;;;;;;25.35;13.52;;;;;;;;;;5092151;28;20048;-63
2021/05/08 06:06:20;;;;;;;27.38;13.95;;;;;;;;;;5091865;28;20024;-62
2021/05/08 06:08:46;;;;;;;26.50;14.00;;;;;;;;;;5093598;28;20544;-63
2021/05/08 06:11:12;;;;;;;24.98;13.82;;;;;;;;;;5094511;28;20027;-63
2021/05/08 06:13:38;;;;;;;25.15;14.23;;;;;;;;;;5094700;28;20023;-63
2021/05/08 06:16:06;;;;;;;24.20;13.32;;;;;;;;;;5092758;28;20088;-63
2021/05/08 06:18:33;;;;;;;29.70;14.93;;;;;;;;;;5092542;28;20045;-62
2021/05/08 06:21:00;;;;;;;24.42;13.27;;;;;;;;;;5092387;28;20021;-63
2021/05/08 06:23:26;;;;;;;26.58;15.55;;;;;;;;;;5093142;28;20027;-59
2021/05/08 06:25:52;;;;;;;26.35;13.93;;;;;;;;;;5091945;28;20016;-63
2021/05/08 06:28:18;;;;;;;24.23;13.13;;;;;;;;;;5092646;28;20032;-64
2021/05/08 06:30:44;;;;;;;24.80;14.07;;;;;;;;;;5092331;28;20051;-63
2021/05/08 06:33:10;;;;;;;23.73;14.07;;;;;;;;;;5092131;28;20039;-64
2021/05/08 06:35:36;;;;;;;24.60;14.18;;;;;;;;;;5092674;28;20016;-63
2021/05/08 06:38:02;;;;;;;25.13;13.13;;;;;;;;;;5092998;28;20031;-62
2021/05/08 06:40:28;;;;;;;25.45;13.98;;;;;;;;;;5091276;28;20100;-63
2021/05/08 06:42:55;;;;;;;29.30;13.50;;;;;;;;;;5092708;28;20499;-62
2021/05/08 06:45:21;;;;;;;23.42;12.43;;;;;;;;;;5091520;28;20024;-61
2021/05/08 06:47:49;;;;;;;25.77;14.27;;;;;;;;;;5073513;28;20024;-61
2021/05/08 06:50:15;;;;;;;25.73;13.55;;;;;;;;;;5071153;28;20484;-61
2021/05/08 06:52:41;;;;;;;23.73;13.25;;;;;;;;;;5072375;28;20103;-63
2021/05/08 06:55:07;;;;;;;22.88;13.15;;;;;;;;;;5071092;28;20170;-63
2021/05/08 06:57:33;;;;;;;24.77;12.10;;;;;;;;;;5071862;28;20357;-64
2021/05/08 07:00:00;;;;;;;23.52;12.07;;;;;;;;;;5071295;28;20039;-61
2021/05/08 07:02:26;;;;;;;22.70;11.75;;;;;;;;;;5072058;28;20027;-64
2021/05/08 07:04:52;;;;;;;23.15;12.70;;;;;;;;;;5070794;28;20020;-63
2021/05/08 07:07:18;;;;;;;21.73;12.32;;;;;;;;;;5071566;28;20024;-62
2021/05/08 07:09:44;;;;;;;22.98;12.55;;;;;;;;;;5089991;23;20048;-64
2021/05/08 07:12:10;;;;;;;20.85;11.90;;;;;;;;;;5068059;28;20032;-65
2021/05/08 07:14:36;;;;;;;19.70;11.25;;;;;;;;;;5069395;28;20027;-64
2021/05/08 07:17:02;;;;;;;22.42;12.25;;;;;;;;;;5068348;28;20021;-63
2021/05/08 07:19:28;;;;;;;20.60;11.98;;;;;;;;;;5068668;28;20020;-64
2021/05/08 07:21:54;;;;;;;22.70;11.68;;;;;;;;;;5067955;28;20020;-63
2021/05/08 07:24:20;;;;;;;21.83;11.30;;;;;;;;;;5069423;28;20504;-65
2021/05/08 07:26:46;;;;;;;20.67;11.30;;;;;;;;;;5069395;28;20089;-64
2021/05/08 07:29:14;;;;;;;18.90;10.23;;;;;;;;;;5069192;28;20020;-63
2021/05/08 07:31:40;;;;;;;19.77;11.27;;;;;;;;;;5070122;28;20050;-65
2021/05/08 07:34:06;;;;;;;20.10;11.52;;;;;;;;;;5069818;28;20060;-63
2021/05/08 07:36:32;;;;;;;20.10;12.52;;;;;;;;;;5068735;28;20145;-63
2021/05/08 07:38:58;;;;;;;20.50;11.50;;;;;;;;;;5069398;28;20036;-65
2021/05/08 07:41:24;;;;;;;19.85;12.80;;;;;;;;;;5069447;28;20078;-64
2021/05/08 07:43:50;;;;;;;21.08;12.40;;;;;;;;;;5071209;28;20060;-53
2021/05/08 07:46:19;;;;;;;19.83;12.02;;;;;;;;;;5073667;28;20044;-56
2021/05/08 07:48:45;;;;;;;22.90;13.45;;;;;;;;;;5073585;28;20056;-57
2021/05/08 07:51:11;;;;;;;23.67;13.65;;;;;;;;;;5072832;28;20036;-55
2021/05/08 07:53:37;;;;;;;23.88;14.82;;;;;;;;;;5074235;28;20032;-58
2021/05/08 07:56:03;;;;;;;23.92;14.07;;;;;;;;;;5074344;28;20033;-54
2021/05/08 07:58:29;;;;;;;25.52;15.88;;;;;;;;;;5073175;28;20028;-55
2021/05/08 08:00:55;;;;;;;24.13;15.38;;;;;;;;;;5069506;28;20021;-56
2021/05/08 08:03:21;;;;;;;22.73;15.15;;;;;;;;;;5061702;28;20036;-57
2021/05/08 08:05:47;;;;;;;24.20;15.15;;;;;;;;;;5064747;28;20091;-56
2021/05/08 08:08:13;;;;;;;22.92;15.13;;;;;;;;;;5073754;28;20067;-54
2021/05/08 08:10:39;;;;;;;26.33;17.25;;;;;;;;;;5072649;28;20123;-56
2021/05/08 08:13:05;;;;;;;23.15;15.88;;;;;;;;;;5073146;28;20039;-58
2021/05/08 08:15:31;;;;;;;23.13;15.00;;;;;;;;;;5074655;28;20060;-59
2021/05/08 08:17:57;;;;;;;23.40;16.02;;;;;;;;;;5074474;28;20017;-58
2021/05/08 08:20:23;;;;;;;24.17;16.13;;;;;;;;;;5065980;28;20040;-61
2021/05/08 08:22:49;;;;;;;22.98;16.02;;;;;;;;;;5057209;28;20100;-63
2021/05/08 08:25:15;;;;;;;22.13;15.38;;;;;;;;;;5067911;28;20031;-64
2021/05/08 08:27:41;;;;;;;24.25;16.27;;;;;;;;;;5071386;28;20564;-61
2021/05/08 08:30:12;;;;;;;22.83;16.15;;;;;;;;;;5070070;28;20028;-62
2021/05/08 08:32:39;;;;;;;22.88;15.63;;;;;;;;;;5073243;28;20473;-62
2021/05/08 08:35:05;;;;;;;23.75;15.68;;;;;;;;;;5071529;28;20028;-63
2021/05/08 08:37:31;;;;;;;22.65;15.48;;;;;;;;;;5071659;28;20076;-63
2021/05/08 08:39:57;;;;;;;22.65;16.45;;;;;;;;;;5071909;28;20056;-62
2021/05/08 08:42:23;;;;;;;22.55;16.08;;;;;;;;;;5073200;28;20149;-62
2021/05/08 08:44:49;;;;;;;24.00;14.90;;;;;;;;;;5071132;28;20060;-62
2021/05/08 08:47:30;;;;;;;22.63;15.48;;;;;;;;;;5072479;28;20113;-62
2021/05/08 08:50:17;;;;;;;24.08;16.25;;;;;;;;;;5071754;28;20473;-63
2021/05/08 08:52:43;;;;;;;23.23;15.73;;;;;;;;;;5070617;28;20036;-61
2021/05/08 08:55:10;;;;;;;23.35;16.20;;;;;;;;;;5072767;28;20032;-60
2021/05/08 08:57:39;;;;;;;21.70;14.45;;;;;;;;;;5072624;28;20028;-61
2021/05/08 09:00:11;;;;;;;19.48;13.95;;;;;;;;;;5071602;28;20033;-61
2021/05/08 09:02:37;;;;;;;22.35;14.60;;;;;;;;;;5072452;28;20105;-64
2021/05/08 09:05:03;;;;;;;21.30;13.90;;;;;;;;;;5072387;28;20028;-64
2021/05/08 09:07:30;;;;;;;20.45;13.55;;;;;;;;;;5072584;28;20028;-63
2021/05/08 09:09:57;;;;;;;22.20;14.27;;;;;;;;;;5070079;28;20040;-61
2021/05/08 09:12:27;;;;;;;20.63;13.63;;;;;;;;;;5070875;28;20028;-63
2021/05/08 09:14:53;;;;;;;19.00;12.93;;;;;;;;;;5072311;28;20104;-63
2021/05/08 09:17:27;;;;;;;20.80;12.98;;;;;;;;;;5072148;28;20080;-62
2021/05/08 09:19:59;;;;;;;19.38;12.75;;;;;;;;;;5071215;28;20031;-63
2021/05/08 09:22:31;;;;;;;20.08;11.98;;;;;;;;;;5072000;28;20078;-60
2021/05/08 09:24:59;;;;;;;21.00;11.93;;;;;;;;;;5071845;28;20021;-59
2021/05/08 09:27:36;;;;;;;19.45;12.35;;;;;;;;;;5070695;28;20388;-61
2021/05/08 09:30:09;;;;;;;20.08;12.82;;;;;;;;;;5071027;28;20047;-61
2021/05/08 09:32:39;;;;;;;20.77;13.20;;;;;;;;;;5070655;28;20103;-61
2021/05/08 09:35:09;;;;;;;19.20;11.80;;;;;;;;;;5071936;28;20048;-60
2021/05/08 09:37:36;;;;;;;21.35;12.50;;;;;;;;;;5071640;28;20080;-62
2021/05/08 09:40:13;;;;;;;23.35;12.02;;;;;;;;;;5071374;28;20025;-59
2021/05/08 09:42:43;;;;;;;18.55;11.90;;;;;;;;;;5071835;28;20372;-60
2021/05/08 09:45:09;;;;;;;18.77;12.00;;;;;;;;;;5070859;28;20036;-58
2021/05/08 09:47:35;;;;;;;19.15;12.30;;;;;;;;;;5071388;28;20026;-58
2021/05/08 09:50:01;;;;;;;18.88;11.57;;;;;;;;;;5068997;28;20396;-57
2021/05/08 09:52:39;;;;;;;18.00;10.93;;;;;;;;;;5070078;28;20024;-62
2021/05/08 09:55:05;;;;;;;18.48;11.45;;;;;;;;;;5071600;28;20025;-59
2021/05/08 09:57:31;;;;;;;19.05;11.07;;;;;;;;;;5071484;28;20078;-60
2021/05/08 09:59:58;;;;;;;18.90;10.65;;;;;;;;;;5070727;28;20396;-63
2021/05/08 10:02:24;;;;;;;18.58;11.30;;;;;;;;;;5070455;28;20105;-61
2021/05/08 10:04:57;;;;;;;18.30;11.15;;;;;;;;;;5071374;28;20411;-60
2021/05/08 10:07:28;;;;;;;17.83;10.52;;;;;;;;;;5071218;28;20024;-63
2021/05/08 10:09:58;;;;;;;18.35;10.55;;;;;;;;;;5070227;28;20032;-62
2021/05/08 10:12:28;;;;;;;19.10;10.98;;;;;;;;;;5071265;28;20051;-61
2021/05/08 10:14:56;;;;;;;19.58;11.07;;;;;;;;;;5069892;28;20039;-63
2021/05/08 10:17:23;;;;;;;18.53;10.30;;;;;;;;;;5070033;28;20036;-61
2021/05/08 10:19:50;;;;;;;18.00;10.32;;;;;;;;;;5068914;28;20072;-63
2021/05/08 10:22:17;;;;;;;18.17;10.00;;;;;;;;;;5070016;28;20020;-61
2021/05/08 10:24:47;;;;;;;16.98;9.52;;;;;;;;;;5071080;28;20496;-59
2021/05/08 10:27:13;;;;;;;16.50;9.60;;;;;;;;;;5069782;28;20024;-61
2021/05/08 10:29:40;;;;;;;17.50;9.43;;;;;;;;;;5070169;28;20028;-61
2021/05/08 10:32:07;;;;;;;18.55;9.77;;;;;;;;;;5070788;28;20074;-63
2021/05/08 10:34:34;;;;;;;18.33;10.07;;;;;;;;;;5069535;28;20052;-62
2021/05/08 10:37:14;;;;;;;18.05;9.43;;;;;;;;;;5070986;28;20473;-62
2021/05/08 10:39:55;;;;;;;17.30;9.60;;;;;;;;;;5069855;28;20159;-60
2021/05/08 10:42:37;;;;;;;17.20;9.38;;;;;;;;;;5069802;28;20076;-61
2021/05/08 10:45:07;;;;;;;17.35;10.65;;;;;;;;;;5069322;28;20017;-62
2021/05/08 10:47:58;;;;;;;17.17;9.80;;;;;;;;;;5068881;28;20092;-56
2021/05/08 10:50:46;;;;;;;16.70;9.88;;;;;;;;;;5064714;28;20119;-59
2021/05/08 10:53:13;;;;;;;17.88;10.15;;;;;;;;;;5069220;28;20344;-59
2021/05/08 10:55:53;;;;;;;18.10;9.60;;;;;;;;;;5070537;28;20020;-60
2021/05/08 10:58:20;;;;;;;16.67;9.35;;;;;;;;;;5070032;28;20039;-59
2021/05/08 11:00:47;;;;;;;19.38;10.02;;;;;;;;;;5069127;28;20110;-60
2021/05/08 11:03:13;;;;;;;16.13;9.73;;;;;;;;;;5068432;28;20484;-63
2021/05/08 11:05:53;;;;;;;17.20;9.73;;;;;;;;;;5069156;28;20339;-60
2021/05/08 11:08:25;;;;;;;17.25;9.70;;;;;;;;;;5069996;28;20111;-61
2021/05/08 11:10:55;;;;;;;17.25;9.82;;;;;;;;;;5069646;28;20024;-62
2021/05/08 11:13:21;;;;;;;18.10;9.85;;;;;;;;;;5068858;28;20027;-61
2021/05/08 11:16:08;;;;;;;16.35;9.48;;;;;;;;;;5070125;28;20357;-63
2021/05/08 11:18:34;;;;;;;19.10;9.23;;;;;;;;;;5069697;28;20052;-62
2021/05/08 11:21:03;;;;;;;17.75;9.82;;;;;;;;;;5069296;28;20032;-62
2021/05/08 11:23:41;;;;;;;15.75;9.23;;;;;;;;;;5070059;28;20100;-60
2021/05/08 11:26:26;;;;;;;17.55;10.25;;;;;;;;;;5070045;28;20380;-60
2021/05/08 11:28:57;;;;;;;17.63;10.43;;;;;;;;;;5069228;28;20055;-61
2021/05/08 11:31:24;;;;;;;15.55;9.45;;;;;;;;;;5068732;28;20181;-60
2021/05/08 11:33:50;;;;;;;16.80;9.93;;;;;;;;;;5070175;28;20036;-61
2021/05/08 11:36:17;;;;;;;18.25;10.48;;;;;;;;;;5067782;28;20110;-62
2021/05/08 11:38:43;;;;;;;16.88;10.00;;;;;;;;;;5068806;28;20028;-62
2021/05/08 11:41:19;;;;;;;15.52;9.65;;;;;;;;;;5069532;28;20021;-61
2021/05/08 11:43:52;;;;;;;17.55;10.13;;;;;;;;;;5069928;28;20392;-61
2021/05/08 11:46:25;;;;;;;16.27;9.93;;;;;;;;;;5069456;28;20120;-63
2021/05/08 11:48:51;;;;;;;15.95;9.85;;;;;;;;;;5064566;28;20056;-60
2021/05/08 11:51:17;;;;;;;16.73;10.43;;;;;;;;;;4715712;28;10000387;-61
2021/05/08 11:53:43;;;;;;;17.60;10.70;;;;;;;;;;5065779;28;20095;-60
2021/05/08 11:56:09;;;;;;;17.13;10.23;;;;;;;;;;5066142;28;20085;-62
2021/05/08 11:58:37;;;;;;;15.93;9.63;;;;;;;;;;5065393;28;20013;-61
2021/05/08 12:01:05;;;;;;;15.98;10.07;;;;;;;;;;5068059;28;20058;-57
2021/05/08 12:03:31;;;;;;;18.13;10.05;;;;;;;;;;5062837;28;20066;-60
2021/05/08 12:05:57;;;;;;;19.42;10.18;;;;;;;;;;5057448;28;20052;-62
2021/05/08 12:08:24;;;;;;;16.77;9.13;;;;;;;;;;5060713;28;20028;-60
2021/05/08 12:10:53;;;;;;;16.20;9.70;;;;;;;;;;5059465;28;20802;-59
2021/05/08 12:13:19;;;;;;;16.73;10.00;;;;;;;;;;5062806;28;20039;-62
2021/05/08 12:15:50;;;;;;;15.70;10.40;;;;;;;;;;5069065;28;20027;-61
2021/05/08 12:18:16;;;;;;;16.23;10.13;;;;;;;;;;5069400;28;20064;-63
2021/05/08 12:20:50;;;;;;;16.70;9.43;;;;;;;;;;5065095;28;20031;-61
2021/05/08 12:23:20;;;;;;;15.48;9.40;;;;;;;;;;5068571;28;20489;-63
2021/05/08 12:26:08;;;;;;;17.45;10.70;;;;;;;;;;5067088;28;20389;-58
2021/05/08 12:28:35;;;;;;;15.85;10.27;;;;;;;;;;5070884;28;20082;-61
2021/05/08 12:31:18;;;;;;;15.75;9.98;;;;;;;;;;5073036;28;20032;-60
2021/05/08 12:33:44;;;;;;;18.33;10.65;;;;;;;;;;5075089;28;20108;-58
2021/05/08 12:36:16;;;;;;;14.85;9.43;;;;;;;;;;5059423;28;20466;-61
2021/05/08 12:38:43;;;;;;;17.25;9.50;;;;;;;;;;5053152;28;20472;-61
2021/05/08 12:41:25;;;;;;;15.82;9.60;;;;;;;;;;5055230;28;20116;-62
2021/05/08 12:43:51;;;;;;;16.05;9.43;;;;;;;;;;5055113;28;20017;-59
2021/05/08 12:46:17;;;;;;;16.25;9.05;;;;;;;;;;5058273;28;20403;-55
2021/05/08 12:48:44;;;;;;;15.30;9.20;;;;;;;;;;5072782;28;20028;-58
2021/05/08 12:51:25;;;;;;;15.63;9.82;;;;;;;;;;5072944;28;20108;-62
2021/05/08 12:54:09;;;;;;;16.65;9.43;;;;;;;;;;5067127;28;20029;-60
2021/05/08 12:56:35;;;;;;;17.25;9.93;;;;;;;;;;5071827;28;20024;-59
2021/05/08 12:59:01;;;;;;;18.65;10.20;;;;;;;;;;5072925;28;20500;-59
2021/05/08 13:01:27;;;;;;;16.13;9.77;;;;;;;;;;5073546;28;20024;-59
2021/05/08 13:03:53;;;;;;;18.17;10.52;;;;;;;;;;5071721;28;20093;-58
2021/05/08 13:06:25;;;;;;;16.27;9.48;;;;;;;;;;5073303;28;20357;-59
2021/05/08 13:08:54;;;;;;;17.45;9.90;;;;;;;;;;5087711;22;20136;-57
2021/05/08 13:11:43;;;;;;;15.95;9.50;;;;;;;;;;5072120;28;20381;-58
2021/05/08 13:14:16;;;;;;;15.38;9.90;;;;;;;;;;5072453;28;20031;-58
2021/05/08 13:16:42;;;;;;;16.13;9.43;;;;;;;;;;5073401;28;20480;-62
2021/05/08 13:19:09;;;;;;;17.02;9.75;;;;;;;;;;5071884;28;20464;-61
2021/05/08 13:21:35;;;;;;;16.20;9.07;;;;;;;;;;5071791;28;20063;-61
2021/05/08 13:24:01;;;;;;;18.23;9.93;;;;;;;;;;5063361;28;20021;-61
2021/05/08 13:26:27;;;;;;;15.90;9.43;;;;;;;;;;4719254;28;9999899;-58
2021/05/08 13:28:53;;;;;;;18.67;9.73;;;;;;;;;;5069484;28;20033;-60
2021/05/08 13:31:19;;;;;;;16.95;9.63;;;;;;;;;;5070231;28;20036;-57
2021/05/08 13:33:45;;;;;;;16.73;9.68;;;;;;;;;;5069510;28;20032;-53
2021/05/08 13:36:11;;;;;;;15.40;9.40;;;;;;;;;;5070173;28;20627;-57
2021/05/08 13:38:37;;;;;;;15.80;9.40;;;;;;;;;;5068535;28;20060;-55
2021/05/08 13:41:05;;;;;;;20.25;9.48;;;;;;;;;;5069523;28;20143;-52
2021/05/08 13:43:31;;;;;;;15.80;9.48;;;;;;;;;;5060823;28;20056;-52
2021/05/08 13:45:57;;;;;;;16.13;9.82;;;;;;;;;;5049794;28;20052;-51
2021/05/08 13:48:23;;;;;;;16.40;9.60;;;;;;;;;;5049163;28;20021;-52
2021/05/08 13:50:49;;;;;;;15.40;9.15;;;;;;;;;;5048566;28;20027;-51
2021/05/08 13:53:15;;;;;;;16.02;8.82;;;;;;;;;;5049647;28;20043;-55
2021/05/08 13:55:41;;;;;;;15.65;9.20;;;;;;;;;;5048248;28;20028;-56
2021/05/08 13:58:08;;;;;;;16.08;9.43;;;;;;;;;;5053020;28;20147;-51
2021/05/08 14:00:34;;;;;;;17.65;8.90;;;;;;;;;;5065777;28;20052;-57
2021/05/08 14:03:00;;;;;;;14.75;8.82;;;;;;;;;;5068950;28;20109;-60
2021/05/08 14:05:26;;;;;;;18.85;9.48;;;;;;;;;;5065610;28;20170;-56
2021/05/08 14:07:52;;;;;;;16.38;9.43;;;;;;;;;;5068657;28;20028;-52
2021/05/08 14:10:18;;;;;;;15.70;8.93;;;;;;;;;;5068620;28;20029;-53